createdAt,value
2018-07-09T00:01:30.959Z,5.03
2018-07-09T00:03:59.337Z,8.53
2018-07-09T00:06:27.776Z,4.90
2018-07-09T00:08:56.139Z,5.93
2018-07-09T00:11:24.284Z,7.53
2018-07-09T00:13:53.164Z,5.53
2018-07-09T00:16:21.543Z,7.40
2018-07-09T00:18:49.952Z,6.87
2018-07-09T00:21:18.356Z,3.97
2018-07-09T00:23:46.740Z,4.90
2018-07-09T00:26:14.912Z,4.70
2018-07-09T00:28:43.282Z,4.70
2018-07-09T00:31:11.355Z,6.70
2018-07-09T00:33:39.471Z,7.03
2018-07-09T00:36:07.851Z,5.67
2018-07-09T00:38:36.240Z,4.97
2018-07-09T00:41:04.621Z,7.77
2018-07-09T00:43:33.031Z,5.73
2018-07-09T00:46:01.420Z,5.80
2018-07-09T00:48:30.159Z,4.90
2018-07-09T00:50:58.569Z,6.03
2018-07-09T00:53:27.003Z,5.03
2018-07-09T00:55:55.364Z,7.37
2018-07-09T00:58:23.784Z,5.83
2018-07-09T01:00:52.143Z,6.47
2018-07-09T01:03:20.528Z,5.70
2018-07-09T01:05:48.915Z,6.47
2018-07-09T01:08:17.307Z,5.03
2018-07-09T01:10:57.018Z,7.33
2018-07-09T01:13:36.669Z,7.37
2018-07-09T01:16:05.067Z,5.07
2018-07-09T01:18:33.449Z,6.50
2018-07-09T01:21:01.823Z,5.23
2018-07-09T01:23:30.242Z,5.87
2018-07-09T01:25:58.594Z,5.60
2018-07-09T01:28:26.994Z,6.27
2018-07-09T01:30:55.359Z,5.93
2018-07-09T01:33:23.732Z,6.87
2018-07-09T01:35:52.070Z,4.80
2018-07-09T01:38:20.166Z,5.57
2018-07-09T01:40:48.503Z,5.07
2018-07-09T01:43:16.863Z,6.00
2018-07-09T01:45:45.192Z,6.67
2018-07-09T01:48:13.600Z,6.67
2018-07-09T01:50:41.933Z,5.77
2018-07-09T01:53:10.413Z,6.23
2018-07-09T01:55:38.479Z,7.13
2018-07-09T01:58:06.964Z,8.63
2018-07-09T02:00:35.047Z,6.93
2018-07-09T02:03:03.408Z,7.37
2018-07-09T02:05:31.483Z,5.53
2018-07-09T02:07:59.862Z,8.57
2018-07-09T02:10:28.186Z,6.93
2018-07-09T02:12:56.571Z,6.07
2018-07-09T02:15:24.901Z,8.73
2018-07-09T02:17:53.265Z,7.70
2018-07-09T02:20:21.604Z,7.13
2018-07-09T02:22:49.972Z,6.47
2018-07-09T02:25:18.311Z,6.47
2018-07-09T02:27:46.669Z,8.33
2018-07-09T02:30:15.023Z,6.57
2018-07-09T02:32:43.376Z,8.33
2018-07-09T02:35:11.427Z,7.90
2018-07-09T02:37:39.780Z,7.77
2018-07-09T02:40:08.129Z,8.27
2018-07-09T02:42:36.474Z,7.40
2018-07-09T02:45:05.203Z,6.83
2018-07-09T02:47:33.533Z,7.73
2018-07-09T02:50:01.687Z,9.13
2018-07-09T02:52:30.020Z,8.77
2018-07-09T02:54:58.408Z,9.43
2018-07-09T02:57:26.732Z,9.57
2018-07-09T02:59:55.092Z,8.03
2018-07-09T03:02:23.444Z,11.03
2018-07-09T03:04:51.803Z,8.80
2018-07-09T03:07:20.143Z,8.70
2018-07-09T03:09:48.531Z,12.00
2018-07-09T03:12:16.864Z,12.07
2018-07-09T03:14:45.241Z,11.33
2018-07-09T03:17:13.597Z,12.33
2018-07-09T03:19:41.679Z,10.40
2018-07-09T03:22:10.034Z,12.37
2018-07-09T03:24:38.380Z,11.37
2018-07-09T03:27:06.716Z,10.43
2018-07-09T03:29:35.094Z,9.33
2018-07-09T03:32:03.424Z,11.83
2018-07-09T03:34:31.792Z,9.63
2018-07-09T03:37:00.136Z,9.13
2018-07-09T03:39:28.507Z,8.50
2018-07-09T03:41:56.837Z,8.17
2018-07-09T03:44:25.201Z,8.53
2018-07-09T03:46:53.535Z,11.70
2018-07-09T03:49:21.637Z,9.70
2018-07-09T03:51:49.972Z,8.57
2018-07-09T03:54:18.359Z,10.43
2018-07-09T03:56:46.423Z,9.47
2018-07-09T03:59:14.786Z,8.67
2018-07-09T04:01:43.103Z,9.93
2018-07-09T04:04:11.191Z,11.97
2018-07-09T04:06:39.524Z,10.90
2018-07-09T04:09:07.874Z,10.63
2018-07-09T04:11:36.208Z,9.13
2018-07-09T04:14:04.303Z,8.60
2018-07-09T04:16:32.634Z,9.70
2018-07-09T04:19:00.997Z,8.17
2018-07-09T04:21:29.341Z,10.33
2018-07-09T04:23:57.768Z,8.87
2018-07-09T04:26:26.182Z,10.97
2018-07-09T04:28:54.286Z,10.90
2018-07-09T04:31:22.620Z,8.83
2018-07-09T04:33:50.955Z,10.80
2018-07-09T04:36:19.337Z,13.27
2018-07-09T04:38:47.673Z,9.53
2018-07-09T04:41:15.780Z,11.73
2018-07-09T04:43:44.120Z,11.30
2018-07-09T04:46:12.215Z,10.73
2018-07-09T04:48:40.545Z,11.03
2018-07-09T04:51:08.920Z,9.63
2018-07-09T04:53:37.318Z,12.37
2018-07-09T04:56:05.720Z,11.90
2018-07-09T04:58:34.035Z,11.73
2018-07-09T05:01:02.397Z,11.47
2018-07-09T05:03:30.738Z,12.30
2018-07-09T05:05:59.121Z,11.50
2018-07-09T05:08:27.496Z,11.07
2018-07-09T05:10:55.904Z,11.27
2018-07-09T05:13:24.248Z,13.73
2018-07-09T05:15:52.658Z,11.93
2018-07-09T05:18:20.721Z,11.20
2018-07-09T05:20:48.804Z,13.07
2018-07-09T05:23:16.879Z,12.00
2018-07-09T05:25:45.327Z,14.50
2018-07-09T05:28:13.692Z,12.07
2018-07-09T05:30:42.087Z,13.77
2018-07-09T05:33:10.424Z,15.67
2018-07-09T05:35:38.802Z,12.57
2018-07-09T05:38:07.124Z,9.00
2018-07-09T05:40:35.572Z,13.10
2018-07-09T05:43:04.005Z,12.20
2018-07-09T05:45:32.422Z,10.30
2018-07-09T05:48:01.129Z,14.03
2018-07-09T05:50:29.559Z,11.57
2018-07-09T05:52:57.670Z,14.77
2018-07-09T05:55:26.037Z,11.53
2018-07-09T05:57:54.400Z,12.23
2018-07-09T06:00:22.506Z,11.13
2018-07-09T06:02:51.517Z,10.97
2018-07-09T06:05:19.932Z,12.23
2018-07-09T06:07:48.272Z,12.63
2018-07-09T06:10:16.664Z,14.23
2018-07-09T06:12:45.033Z,10.90
2018-07-09T06:15:13.417Z,11.37
2018-07-09T06:17:41.798Z,12.40
2018-07-09T06:20:10.176Z,15.67
2018-07-09T06:22:38.532Z,12.97
2018-07-09T06:25:06.944Z,10.50
2018-07-09T06:27:35.343Z,9.00
2018-07-09T06:30:03.841Z,10.47
2018-07-09T06:32:31.944Z,8.80
2018-07-09T06:35:00.284Z,8.33
2018-07-09T06:37:28.664Z,9.80
2018-07-09T06:39:56.736Z,11.40
2018-07-09T06:42:25.103Z,10.33
2018-07-09T06:44:53.455Z,9.60
2018-07-09T06:47:22.010Z,8.97
2018-07-09T06:49:50.357Z,9.13
2018-07-09T06:52:18.740Z,9.17
2018-07-09T06:54:47.136Z,7.50
2018-07-09T06:57:15.548Z,9.40
2018-07-09T06:59:43.900Z,7.50
2018-07-09T07:02:12.307Z,7.53
2018-07-09T07:04:40.633Z,6.97
2018-07-09T07:07:09.008Z,8.13
2018-07-09T07:09:37.367Z,8.57
2018-07-09T07:12:05.803Z,7.13
2018-07-09T07:14:34.138Z,7.90
2018-07-09T07:17:02.544Z,6.93
2018-07-09T07:19:30.607Z,9.13
2018-07-09T07:21:58.998Z,8.27
2018-07-09T07:24:27.065Z,8.73
2018-07-09T07:26:55.213Z,6.23
2018-07-09T07:29:23.550Z,6.47
2018-07-09T07:31:51.920Z,8.00
2018-07-09T07:34:20.309Z,8.13
2018-07-09T07:36:48.700Z,7.10
2018-07-09T07:39:17.037Z,5.87
2018-07-09T07:41:45.412Z,6.70
2018-07-09T07:44:13.752Z,6.00
2018-07-09T07:46:42.125Z,6.23
2018-07-09T07:49:10.485Z,7.20
2018-07-09T07:51:38.920Z,7.43
2018-07-09T07:54:07.293Z,7.37
2018-07-09T07:56:35.684Z,6.63
2018-07-09T07:59:04.064Z,7.27
2018-07-09T08:01:32.439Z,7.97
2018-07-09T08:04:00.776Z,9.33
2018-07-09T08:06:29.177Z,6.63
2018-07-09T08:08:57.528Z,7.83
2018-07-09T08:11:47.730Z,6.57
2018-07-09T08:13:54.303Z,7.97
2018-07-09T08:16:22.692Z,8.10
2018-07-09T08:18:51.021Z,7.73
2018-07-09T08:21:19.095Z,7.93
2018-07-09T08:23:47.492Z,8.13
2018-07-09T08:26:15.838Z,11.07
2018-07-09T08:28:44.226Z,7.43
2018-07-09T08:31:12.503Z,7.10
2018-07-09T08:33:40.708Z,9.60
2018-07-09T08:36:09.065Z,9.97
2018-07-09T08:38:37.165Z,7.70
2018-07-09T08:41:06.008Z,9.17
2018-07-09T08:43:34.409Z,9.83
2018-07-09T08:46:02.886Z,11.43
2018-07-09T08:48:31.478Z,9.97
2018-07-09T08:50:59.563Z,9.43
2018-07-09T08:53:28.052Z,7.97
2018-07-09T08:55:56.470Z,9.50
2018-07-09T08:58:24.852Z,7.87
2018-07-09T09:00:53.337Z,8.43
2018-07-09T09:03:21.717Z,8.53
2018-07-09T09:05:50.087Z,10.47
2018-07-09T09:08:18.483Z,8.50
2018-07-09T09:10:46.892Z,7.50
2018-07-09T09:13:15.321Z,6.90
2018-07-09T09:15:43.716Z,8.80
2018-07-09T09:18:12.141Z,7.33
2018-07-09T09:20:40.490Z,7.63
2018-07-09T09:23:09.060Z,9.10
2018-07-09T09:25:37.482Z,9.87
2018-07-09T09:28:05.905Z,9.40
2018-07-09T09:30:34.278Z,8.57
2018-07-09T09:33:02.681Z,8.23
2018-07-09T09:35:31.034Z,7.53
2018-07-09T09:37:59.449Z,11.20
2018-07-09T09:40:27.961Z,11.93
2018-07-09T09:42:56.412Z,8.00
2018-07-09T09:45:24.789Z,15.23
2018-07-09T09:47:53.177Z,11.63
2018-07-09T09:50:21.569Z,9.70
2018-07-09T09:52:50.024Z,9.30
2018-07-09T09:55:18.398Z,10.40
2018-07-09T09:57:46.814Z,11.20
2018-07-09T10:00:15.140Z,9.07
2018-07-09T10:02:43.531Z,8.53
2018-07-09T10:05:11.869Z,9.93
2018-07-09T10:07:40.234Z,8.50
2018-07-09T10:10:08.583Z,13.00
2018-07-09T10:12:36.927Z,8.00
2018-07-09T10:15:05.320Z,10.47
2018-07-09T10:17:33.680Z,8.57
2018-07-09T10:20:02.066Z,8.87
2018-07-09T10:22:30.404Z,7.97
2018-07-09T10:24:58.765Z,9.07
2018-07-09T10:27:27.176Z,10.70
2018-07-09T10:29:55.279Z,8.43
2018-07-09T10:32:23.605Z,9.07
2018-07-09T10:34:51.968Z,8.40
2018-07-09T10:37:20.292Z,7.37
2018-07-09T10:39:48.389Z,7.93
2018-07-09T10:42:16.704Z,9.93
2018-07-09T10:44:45.064Z,6.80
2018-07-09T10:47:13.822Z,7.47
2018-07-09T10:49:41.890Z,6.97
2018-07-09T10:52:10.238Z,7.70
2018-07-09T10:54:38.635Z,6.77
2018-07-09T10:57:06.741Z,8.07
2018-07-09T10:59:35.133Z,7.77
2018-07-09T11:02:03.555Z,10.53
2018-07-09T11:04:32.033Z,8.20
2018-07-09T11:07:00.560Z,5.40
2018-07-09T11:09:28.962Z,5.60
2018-07-09T11:11:57.304Z,6.43
2018-07-09T11:14:25.695Z,5.50
2018-07-09T11:16:54.072Z,5.80
2018-07-09T11:19:23.560Z,7.53
2018-07-09T11:21:51.920Z,7.07
2018-07-09T11:24:20.379Z,7.73
2018-07-09T11:26:48.764Z,7.50
2018-07-09T11:29:17.225Z,7.20
2018-07-09T11:31:45.644Z,7.87
2018-07-09T11:34:14.588Z,5.27
2018-07-09T11:36:42.973Z,4.47
2018-07-09T11:39:11.368Z,3.83
2018-07-09T11:41:39.793Z,6.00
2018-07-09T11:44:08.316Z,4.77
2018-07-09T11:46:36.722Z,4.60
2018-07-09T11:49:08.054Z,4.73
2018-07-09T11:51:36.419Z,4.17
2018-07-09T11:54:04.929Z,4.83
2018-07-09T11:56:33.300Z,5.77
2018-07-09T11:59:01.798Z,4.53
2018-07-09T12:01:30.165Z,6.00
2018-07-09T12:03:58.589Z,5.40
2018-07-09T12:06:26.724Z,5.00
2018-07-09T12:08:55.159Z,6.03
2018-07-09T12:11:23.719Z,4.73
2018-07-09T12:13:52.185Z,5.70
2018-07-09T12:16:20.617Z,6.30
2018-07-09T12:18:48.975Z,5.00
2018-07-09T12:21:17.345Z,3.10
2018-07-09T12:23:45.807Z,4.10
2018-07-09T12:26:14.341Z,3.60
2018-07-09T12:28:42.720Z,3.10
2018-07-09T12:31:11.205Z,2.80
2018-07-09T12:33:39.565Z,2.93
2018-07-09T12:36:08.219Z,4.07
2018-07-09T12:38:36.625Z,6.57
2018-07-09T12:41:05.594Z,2.50
2018-07-09T12:43:34.090Z,3.13
2018-07-09T12:46:02.455Z,3.97
2018-07-09T12:48:30.868Z,2.73
2018-07-09T12:50:59.363Z,5.10
2018-07-09T12:53:27.806Z,5.03
2018-07-09T12:55:56.466Z,2.77
2018-07-09T12:58:24.997Z,3.17
2018-07-09T13:00:53.303Z,2.37
2018-07-09T13:03:22.288Z,4.30
2018-07-09T13:05:50.694Z,3.53
2018-07-09T13:08:19.114Z,2.23
2018-07-09T13:10:48.008Z,2.73
2018-07-09T13:13:16.397Z,3.33
2018-07-09T13:15:44.552Z,2.90
2018-07-09T13:18:12.912Z,3.90
2018-07-09T13:20:41.272Z,4.33
2018-07-09T13:23:09.603Z,2.73
2018-07-09T13:25:38.012Z,2.40
2018-07-09T13:28:06.397Z,3.80
2018-07-09T13:30:34.819Z,2.23
2018-07-09T13:33:03.185Z,3.03
2018-07-09T13:35:31.608Z,2.70
2018-07-09T13:38:00.197Z,2.50
2018-07-09T13:40:28.573Z,3.20
2018-07-09T13:42:56.952Z,15.60
2018-07-09T13:45:25.461Z,3.40
2018-07-09T13:47:53.805Z,2.63
2018-07-09T13:50:22.197Z,2.10
2018-07-09T13:52:50.548Z,2.20
2018-07-09T13:55:20.769Z,3.47
2018-07-09T13:57:49.677Z,2.67
2018-07-09T14:00:18.061Z,2.53
2018-07-09T14:02:46.693Z,3.27
2018-07-09T14:05:15.024Z,2.53
2018-07-09T14:07:44.393Z,2.67
2018-07-09T14:10:12.785Z,3.30
2018-07-09T14:12:42.344Z,3.87
2018-07-09T14:15:10.708Z,3.03
2018-07-09T14:17:45.537Z,2.30
2018-07-09T14:20:32.586Z,4.33
2018-07-09T14:23:01.873Z,3.50
2018-07-09T14:25:32.034Z,2.13
2018-07-09T14:28:02.315Z,3.67
2018-07-09T14:30:30.807Z,3.93
2018-07-09T14:32:59.390Z,2.70
2018-07-09T14:35:27.759Z,3.47
2018-07-09T14:37:56.121Z,4.27
2018-07-09T14:40:24.651Z,2.20
2018-07-09T14:42:53.021Z,2.60
2018-07-09T14:45:21.353Z,3.60
2018-07-09T14:47:49.704Z,2.43
2018-07-09T14:50:18.040Z,3.03
2018-07-09T14:52:46.432Z,1.30
2018-07-09T14:55:14.810Z,2.47
2018-07-09T14:57:43.194Z,2.43
2018-07-09T15:00:11.550Z,4.37
2018-07-09T15:02:39.922Z,3.80
2018-07-09T15:05:08.272Z,2.03
2018-07-09T15:07:36.662Z,1.60
2018-07-09T15:10:05.192Z,2.80
2018-07-09T15:12:33.581Z,2.13
2018-07-09T15:15:01.933Z,3.40
2018-07-09T15:17:30.357Z,3.67
2018-07-09T15:19:58.700Z,4.50
2018-07-09T15:22:26.787Z,3.20
2018-07-09T15:24:55.132Z,4.17
2018-07-09T15:27:23.480Z,3.27
2018-07-09T15:29:51.912Z,4.07
2018-07-09T15:32:30.446Z,3.03
2018-07-09T15:34:58.860Z,15.10
2018-07-09T15:37:27.500Z,3.53
2018-07-09T15:39:55.680Z,6.13
2018-07-09T15:42:24.137Z,6.80
2018-07-09T15:44:52.610Z,2.50
2018-07-09T15:47:20.976Z,4.13
2018-07-09T15:49:49.333Z,3.97
2018-07-09T15:52:17.708Z,2.57
2018-07-09T15:54:46.116Z,6.83
2018-07-09T15:57:14.524Z,4.23
2018-07-09T15:59:42.864Z,5.90
2018-07-09T16:02:11.243Z,3.40
2018-07-09T16:04:39.589Z,4.23
2018-07-09T16:07:07.964Z,6.37
2018-07-09T16:09:36.393Z,4.10
2018-07-09T16:12:04.787Z,6.20
2018-07-09T16:14:33.127Z,4.57
2018-07-09T16:17:01.496Z,5.37
2018-07-09T16:19:29.832Z,6.40
2018-07-09T16:21:57.940Z,7.20
2018-07-09T16:24:26.266Z,4.77
2018-07-09T16:26:55.653Z,7.53
2018-07-09T16:29:24.104Z,4.50
2018-07-09T16:31:52.159Z,4.00
2018-07-09T16:34:20.515Z,5.43
2018-07-09T16:36:48.834Z,4.20
2018-07-09T16:39:17.188Z,5.53
2018-07-09T16:41:45.261Z,5.17
2018-07-09T16:44:13.633Z,5.07
2018-07-09T16:46:42.057Z,3.70
2018-07-09T16:49:10.385Z,4.50
2018-07-09T16:51:38.710Z,5.80
2018-07-09T16:54:07.151Z,6.47
2018-07-09T16:56:35.531Z,4.70
2018-07-09T16:59:03.931Z,5.53
2018-07-09T17:01:32.271Z,4.20
2018-07-09T17:04:00.653Z,4.37
2018-07-09T17:06:29.029Z,7.67
2018-07-09T17:08:57.398Z,8.23
2018-07-09T17:11:25.755Z,5.33
2018-07-09T17:13:54.116Z,5.33
2018-07-09T17:16:22.448Z,5.50
2018-07-09T17:18:50.806Z,5.00
2018-07-09T17:21:19.147Z,7.43
2018-07-09T17:23:47.521Z,5.37
2018-07-09T17:26:15.928Z,6.10
2018-07-09T17:28:44.252Z,5.57
2018-07-09T17:31:12.564Z,5.07
2018-07-09T17:33:40.932Z,6.23
2018-07-09T17:36:08.996Z,3.53
2018-07-09T17:38:37.090Z,5.27
2018-07-09T17:41:05.523Z,4.17
2018-07-09T17:43:33.892Z,4.10
2018-07-09T17:46:02.264Z,4.80
2018-07-09T17:48:30.689Z,5.23
2018-07-09T17:50:58.763Z,6.60
2018-07-09T17:53:26.904Z,6.40
2018-07-09T17:55:55.275Z,5.30
2018-07-09T17:58:24.793Z,4.93
2018-07-09T18:00:53.140Z,3.77
2018-07-09T18:03:21.608Z,7.23
2018-07-09T18:05:49.964Z,11.23
2018-07-09T18:08:18.063Z,6.10
2018-07-09T18:10:46.453Z,4.87
2018-07-09T18:13:14.823Z,7.00
2018-07-09T18:15:43.175Z,5.00
2018-07-09T18:18:11.546Z,5.77
2018-07-09T18:20:39.898Z,4.80
2018-07-09T18:23:09.107Z,5.60
2018-07-09T18:25:37.863Z,4.37
2018-07-09T18:28:06.244Z,4.20
2018-07-09T18:30:34.613Z,4.90
2018-07-09T18:33:03.183Z,5.43
2018-07-09T18:35:31.434Z,4.17
2018-07-09T18:37:59.696Z,5.87
2018-07-09T18:40:28.090Z,4.00
2018-07-09T18:42:56.604Z,5.97
2018-07-09T18:45:24.747Z,5.83
2018-07-09T18:47:53.128Z,5.33
2018-07-09T18:50:21.516Z,3.90
2018-07-09T18:52:49.882Z,8.73
2018-07-09T18:55:18.964Z,3.23
2018-07-09T18:57:47.309Z,5.07
2018-07-09T19:00:15.681Z,5.43
2018-07-09T19:02:44.044Z,6.60
2018-07-09T19:05:12.146Z,3.90
2018-07-09T19:07:40.600Z,4.07
2018-07-09T19:10:08.714Z,4.50
2018-07-09T19:12:37.760Z,6.57
2018-07-09T19:15:07.606Z,4.20
2018-07-09T19:17:58.691Z,3.73
2018-07-09T19:20:32.552Z,6.95
2018-07-09T19:22:59.855Z,5.83
2018-07-09T19:25:27.197Z,6.15
2018-07-09T19:27:55.110Z,5.63
2018-07-09T19:30:22.432Z,2.60
2018-07-09T19:32:49.996Z,6.30
2018-07-09T19:35:17.384Z,6.73
2018-07-09T19:37:45.014Z,7.78
2018-07-09T19:40:12.157Z,2.80
2018-07-09T19:42:39.457Z,3.30
2018-07-09T19:45:06.774Z,4.10
2018-07-09T19:47:34.069Z,6.47
2018-07-09T19:50:01.388Z,4.67
2018-07-09T19:52:28.681Z,5.90
2018-07-09T19:54:56.062Z,4.85
2018-07-09T19:57:23.319Z,4.57
2018-07-09T19:59:50.639Z,3.00
2018-07-09T20:02:17.936Z,7.33
2018-07-09T20:04:45.275Z,4.87
2018-07-09T20:07:12.604Z,6.53
2018-07-09T20:09:45.417Z,3.00
2018-07-09T20:12:18.270Z,4.50
2018-07-09T20:14:50.963Z,3.30
2018-07-09T20:17:25.479Z,3.53
2018-07-09T20:19:52.811Z,5.30
2018-07-09T20:22:20.100Z,5.77
2018-07-09T20:24:47.392Z,5.03
2018-07-09T20:27:14.712Z,3.63
2018-07-09T20:29:42.005Z,4.60
2018-07-09T20:32:09.338Z,4.50
2018-07-09T20:34:36.628Z,6.87
2018-07-09T20:37:04.207Z,8.27
2018-07-09T20:39:31.491Z,5.20
2018-07-09T20:41:58.812Z,4.40
2018-07-09T20:44:26.095Z,4.47
2018-07-09T20:46:53.455Z,8.15
2018-07-09T20:49:20.760Z,5.93
2018-07-09T20:51:48.342Z,5.40
2018-07-09T20:54:15.644Z,7.17
2018-07-09T20:56:42.969Z,4.67
2018-07-09T20:59:10.268Z,5.42
2018-07-09T21:01:37.596Z,6.00
2018-07-09T21:04:10.448Z,5.40
2018-07-09T21:06:37.764Z,7.13
2018-07-09T21:09:05.312Z,7.33
2018-07-09T21:11:32.635Z,8.10
2018-07-09T21:13:59.961Z,5.40
2018-07-09T21:16:27.288Z,4.77
2018-07-09T21:18:54.830Z,6.87
2018-07-09T21:21:26.380Z,7.37
2018-07-09T21:23:53.855Z,5.07
2018-07-09T21:26:21.185Z,4.53
2018-07-09T21:28:48.625Z,7.17
2018-07-09T21:31:16.267Z,5.10
2018-07-09T21:33:44.006Z,3.83
2018-07-09T21:36:12.385Z,3.87
2018-07-09T21:38:40.791Z,6.10
2018-07-09T21:41:08.131Z,6.17
2018-07-09T21:43:35.490Z,5.33
2018-07-09T21:46:02.781Z,7.50
2018-07-09T21:48:30.530Z,3.30
2018-07-09T21:50:57.833Z,5.47
2018-07-09T21:53:26.017Z,6.33
2018-07-09T21:55:53.950Z,4.00
2018-07-09T21:58:21.335Z,4.53
2018-07-09T22:00:48.668Z,5.37
2018-07-09T22:03:16.312Z,5.77
2018-07-09T22:05:43.617Z,5.03
2018-07-09T22:08:10.945Z,3.73
2018-07-09T22:10:38.237Z,4.07
2018-07-09T22:13:06.686Z,4.90
2018-07-09T22:15:33.985Z,6.30
2018-07-09T22:18:01.313Z,5.73
2018-07-09T22:20:28.607Z,5.73
2018-07-09T22:22:55.991Z,2.87
2018-07-09T22:25:23.300Z,5.27
2018-07-09T22:27:50.883Z,4.40
2018-07-09T22:30:25.523Z,5.00
2018-07-09T22:32:53.897Z,4.23
2018-07-09T22:35:22.267Z,4.53
2018-07-09T22:37:50.632Z,4.37
2018-07-09T22:40:18.970Z,4.37
2018-07-09T22:42:47.324Z,4.83
2018-07-09T22:45:15.684Z,8.00
2018-07-09T22:47:44.044Z,4.37
2018-07-09T22:50:12.115Z,3.97
2018-07-09T22:52:40.199Z,5.73
2018-07-09T22:55:19.908Z,3.20
2018-07-09T22:57:48.282Z,5.83
2018-07-09T23:00:18.650Z,5.33
2018-07-09T23:02:57.175Z,4.87
2018-07-09T23:05:25.510Z,5.30
2018-07-09T23:07:53.876Z,3.37
2018-07-09T23:11:33.280Z,6.50
2018-07-09T23:14:43.840Z,6.47
2018-07-09T23:17:17.535Z,4.50
2018-07-09T23:19:55.988Z,5.87
2018-07-09T23:22:24.391Z,3.87
2018-07-09T23:24:51.707Z,4.30
2018-07-09T23:27:19.088Z,7.47
2018-07-09T23:29:47.216Z,6.67
2018-07-09T23:32:14.806Z,4.37
2018-07-09T23:34:42.109Z,4.17
2018-07-09T23:37:09.422Z,4.07
2018-07-09T23:39:36.722Z,2.90
2018-07-09T23:42:04.065Z,5.77
2018-07-09T23:44:31.368Z,4.43
2018-07-09T23:46:58.658Z,4.47
2018-07-09T23:49:25.991Z,6.77
2018-07-09T23:51:53.589Z,6.90
2018-07-09T23:54:21.174Z,5.23
2018-07-09T23:56:51.457Z,6.10
2018-07-09T23:59:32.097Z,4.80
